Search for airport 
image banner adimage banner adimage banner ad
image banner ad

5CL8 - Creekside

Located in Arvin, United States

ICAO - 5CL8, IATA -

Data provided by Airmate  

General information

Coordinates: N35°10'34" W118°55'23"
Elevation is 335 feet MSL.
Magnetic variation is 14° East
View others Airports in California

Operational data

Special qualification required
Current time UTC:
Current local time:
Weather at : KBFL - Meadows Field ( 31 km )
METAR: KBFL 220013Z 33015KT 3SM HZ FU CLR 37/07 A2998 RMK AO2 T03670072
TAF: KBFL 212320Z 2200/2224 31008KT 4SM HZ FU SKC
View NOTAMs / SUP AIP / TFR affecting this airport [VIEW]
Communications frequencies: [VIEW]

Runways:

RWY identifierQFULength (ft)Width (ft)SurfaceLDA (ft)
162000100OTHER
342000100OTHER

Airport contact information

Address: Arvin United States

Satellite view of 5CL8